»·PEaware :: N116S KPRC-P29

N116S :: KPRC-P29

FLIGHT INFORMATION

Flight Status: Arrived
Operator: Privately registered:
United States
More flights under this callsign
Pilot: Steve R. (16018)
Aircraft: ECLIPSE 500
(EA50)
More flights by this aircraft type
Origin: KPRC Love
United States
Destination: P29 Tombstone Mun
United States
More flights between these airports :: More routes between these airports
Route: +COYOT V257 PXR V16 TUS V66 JORTO
File this flight plan on PilotEdge
Remarks: Sample flight plan
Altitude:
(Current/Filed)
10,000ft
Speed:
(Current/Filed)
325kts
Departed: 13-Feb-18 08:55 PM
Arrived: 13-Feb-18 09:48 PM
Distance/Time
Traveled:
216nm/0:53
Distance/Time
To Go:
Arrived

Flight Plot

Page will automatically refresh every two minutes.

Flight plan parsing failed; only flown route is shown


Map Options




Map Legend


Flown Route
Filed Route
Departure Airport
Arrival Airport
Navaid (VOR, NDB)
Fix

Horizontal Profiles

Position Reports

Time Latitude Longitude Heading Altitude Ground
Speed
13-Feb-18 20:49 34.653933 -112.422751 130 5002ft 0kts
13-Feb-18 20:50 34.653933 -112.422751 130 5002ft 0kts
13-Feb-18 20:51 34.653933 -112.422751 130 5002ft 0kts
13-Feb-18 20:52 34.653933 -112.422751 130 5002ft 0kts
13-Feb-18 20:53 34.653933 -112.422751 130 5002ft 0kts
13-Feb-18 20:54 34.653933 -112.422751 130 5002ft 0kts
13-Feb-18 20:55 34.654666 -112.421513 37 4994ft 9kts
13-Feb-18 20:56 34.655687 -112.419745 40 4986ft 14kts
13-Feb-18 20:57 34.657433 -112.417900 43 4972ft 5kts
13-Feb-18 20:58 34.660249 -112.414887 41 4964ft 18kts
13-Feb-18 20:59 34.661874 -112.413104 115 4949ft 0kts
13-Feb-18 21:00 34.661874 -112.413104 115 4949ft 0kts
13-Feb-18 21:01 34.660907 -112.412759 219 4957ft 25kts
13-Feb-18 21:02 34.637224 -112.431838 210 5740ft 158kts
13-Feb-18 21:03 34.592306 -112.459432 210 6731ft 220kts
13-Feb-18 21:05 34.472718 -112.529719 209 8626ft 272kts
13-Feb-18 21:06 34.401624 -112.552562 210 9586ft 254kts
13-Feb-18 21:07 34.343177 -112.514963 117 9999ft 319kts
13-Feb-18 21:08 34.306339 -112.413866 116 10101ft 341kts
13-Feb-18 21:09 34.268300 -112.309530 116 10001ft 330kts
13-Feb-18 21:10 34.222828 -112.224730 137 9997ft 308kts
13-Feb-18 21:11 34.161066 -112.163247 168 9998ft 287kts
13-Feb-18 21:12 34.087542 -112.139574 172 10000ft 299kts
13-Feb-18 21:13 34.009206 -112.117546 173 9993ft 309kts
13-Feb-18 21:14 33.940412 -112.099565 174 10238ft 305kts
13-Feb-18 21:15 33.851239 -112.076746 174 10246ft 310kts
13-Feb-18 21:16 33.772582 -112.056632 174 10246ft 312kts
13-Feb-18 21:17 33.695238 -112.036885 174 10246ft 312kts
13-Feb-18 21:18 33.617010 -112.016933 174 10730ft 317kts
13-Feb-18 21:19 33.537498 -111.996662 175 12752ft 320kts
13-Feb-18 21:20 33.453785 -111.975063 174 10234ft 318kts
13-Feb-18 21:21 33.384560 -111.942748 164 10801ft 245kts
13-Feb-18 21:22 33.325771 -111.911483 163 11238ft 265kts
13-Feb-18 21:23 33.253066 -111.872362 162 11248ft 312kts
13-Feb-18 21:24 33.174406 -111.829720 162 11265ft 315kts
13-Feb-18 21:25 33.096554 -111.787537 162 11246ft 304kts
13-Feb-18 21:26 33.020816 -111.746659 162 11235ft 300kts
13-Feb-18 21:27 32.946111 -111.706429 162 11210ft 299kts
13-Feb-18 21:28 32.872746 -111.666969 162 11214ft 298kts
13-Feb-18 21:29 32.802706 -111.616745 147 11214ft 308kts
13-Feb-18 21:30 32.738115 -111.552944 146 11214ft 309kts
13-Feb-18 21:31 32.673610 -111.488599 146 11214ft 310kts
13-Feb-18 21:32 32.608805 -111.423872 146 11215ft 309kts
13-Feb-18 21:33 32.545406 -111.360629 146 11215ft 310kts
13-Feb-18 21:34 32.480367 -111.295732 146 11171ft 311kts
13-Feb-18 21:35 32.416021 -111.231882 146 11171ft 310kts
13-Feb-18 21:36 32.352533 -111.168927 146 11171ft 310kts
13-Feb-18 21:37 32.291007 -111.108008 146 11172ft 309kts
13-Feb-18 21:38 32.229238 -111.046964 146 11172ft 312kts
13-Feb-18 21:39 32.166264 -110.984848 146 11172ft 319kts
13-Feb-18 21:40 32.102639 -110.921464 139 11164ft 326kts
13-Feb-18 21:41 32.065552 -110.849146 124 11173ft 334kts
13-Feb-18 21:42 32.015360 -110.743433 124 11174ft 335kts
13-Feb-18 21:43 31.972550 -110.652395 123 11174ft 335kts
13-Feb-18 21:44 31.936990 -110.576753 123 11175ft 335kts
13-Feb-18 21:45 31.894058 -110.485389 124 11177ft 335kts
13-Feb-18 21:46 31.843356 -110.378205 123 11034ft 340kts
13-Feb-18 21:47 31.807447 -110.302365 123 10504ft 320kts
13-Feb-18 21:48 31.763943 -110.220399 148 9265ft 295kts
13-Feb-18 21:49 31.698896 -110.249406 226 7524ft 234kts
13-Feb-18 21:50 31.659175 -110.233033 93 7170ft 218kts
13-Feb-18 21:51 31.659551 -110.169217 85 7171ft 195kts
13-Feb-18 21:52 31.660207 -110.114449 85 7166ft 186kts
13-Feb-18 21:53 31.661546 -110.065536 79 6578ft 149kts
13-Feb-18 21:54 31.671405 -110.020970 65 4695ft 122kts
13-Feb-18 21:55 31.679235 -110.013983 184 4635ft 22kts
13-Feb-18 21:56 31.676356 -110.014407 192 4667ft 0kts
13-Feb-18 21:57 31.675282 -110.014574 203 4679ft 22kts
13-Feb-18 21:58 31.672932 -110.015749 222 4689ft 0kts
13-Feb-18 21:59 31.672932 -110.015749 222 4689ft 0kts
13-Feb-18 22:00 31.672932 -110.015749 222 4689ft 0kts
13-Feb-18 22:05 31.672932 -110.015749 223 4689ft 0kts
13-Feb-18 22:06 31.672932 -110.015749 223 4689ft 0kts
13-Feb-18 22:07 31.672932 -110.015749 223 4689ft 0kts

Navigation Log

Ident Type
Flight plan parsing failed, navigation log unavailable